Time;durP1;ratioP1;P1;durP2;ratioP2;P2;SDS_P1;SDS_P2;PMS_P1;PMS_P2;Temp;Humidity;BMP_temperature;BMP_pressure;BME280_temperature;BME280_humidity;BME280_pressure;Samples;Min_cycle;Max_cycle;Signal;HPM_P1;HPM_P2
2022/01/20 00:00:33;;;;;;;15.03;2.10;;;;;;;2.50;85.13;102391.31;5034349;28;20029;-92
2022/01/20 00:03:02;;;;;;;20.93;2.40;;;;;;;2.49;85.17;102391.22;5034831;28;20029;-91
2022/01/20 00:08:15;;;;;;;12.63;1.80;;;;;;;2.51;85.40;102381.88;5032707;28;20029;-92
2022/01/20 00:27:10;;;;;;;14.63;1.90;;;;;;;2.62;85.44;102395.97;5035335;28;20070;-91
2022/01/20 00:30:07;;;;;;;17.97;3.30;;;;;;;2.62;85.42;102400.22;5036008;28;20492;-91
2022/01/20 00:32:28;;;;;;;16.23;2.00;;;;;;;2.60;85.67;102404.44;5032726;28;20041;-92
2022/01/20 00:35:11;;;;;;;20.20;2.13;;;;;;;2.58;85.35;102397.53;5034002;28;20033;-91
2022/01/20 00:37:37;;;;;;;12.93;2.10;;;;;;;2.58;85.32;102400.13;5030169;28;20033;-92
2022/01/20 00:40:03;;;;;;;21.50;2.37;;;;;;;2.56;85.49;102391.47;5031531;28;20436;-91
2022/01/20 00:42:28;;;;;;;20.50;2.07;;;;;;;2.55;85.20;102401.72;5029999;28;20017;-91
2022/01/20 00:44:54;;;;;;;18.47;2.50;;;;;;;2.53;85.25;102406.81;5031556;28;20056;-92
2022/01/20 00:47:20;;;;;;;15.20;2.47;;;;;;;2.52;85.37;102406.75;5056845;28;20014;-91
2022/01/20 00:49:45;;;;;;;15.30;2.20;;;;;;;2.49;85.52;102394.69;5053809;28;20033;-92
2022/01/20 00:52:11;;;;;;;13.90;2.33;;;;;;;2.48;85.14;102399.75;5030089;28;20025;-91
2022/01/20 00:54:36;;;;;;;15.73;2.17;;;;;;;2.48;85.24;102395.50;5033488;28;20041;-91
2022/01/20 00:57:02;;;;;;;15.67;2.03;;;;;;;2.48;85.11;102390.38;5031163;28;20136;-91
2022/01/20 00:59:29;;;;;;;18.27;1.97;;;;;;;2.48;85.58;102392.06;5032038;28;20039;-91
2022/01/20 01:01:56;;;;;;;10.87;1.47;;;;;;;2.51;85.01;102403.31;5031539;28;20021;-91
2022/01/20 01:04:22;;;;;;;13.30;1.93;;;;;;;2.54;85.20;102400.84;5031713;28;20039;-91
2022/01/20 01:09:32;;;;;;;13.17;2.83;;;;;;;2.57;85.35;102406.06;5030967;28;20187;-91
2022/01/20 01:12:02;;;;;;;18.50;2.03;;;;;;;2.58;85.19;102405.25;5028780;28;20529;-91
2022/01/20 01:14:30;;;;;;;13.17;1.77;;;;;;;2.60;85.35;102407.88;5032303;28;20536;-91
2022/01/20 01:24:39;;;;;;;9.57;1.45;;;;;;;2.65;85.43;102423.44;5030307;28;20031;-92
2022/01/20 01:27:05;;;;;;;11.73;2.63;;;;;;;2.65;85.29;102421.75;5029041;28;20060;-92
2022/01/20 01:32:04;;;;;;;11.02;1.80;;;;;;;2.62;85.18;102425.91;5031461;28;20147;-91
2022/01/20 01:34:31;;;;;;;14.50;1.87;;;;;;;2.58;85.72;102424.94;5028812;28;20416;-91
2022/01/20 01:39:24;;;;;;;11.90;1.67;;;;;;;2.57;85.90;102413.78;5032476;28;20033;-91
2022/01/20 01:41:50;;;;;;;9.43;1.57;;;;;;;2.57;85.38;102418.91;5030111;28;20032;-91
2022/01/20 01:44:24;;;;;;;18.87;1.87;;;;;;;2.56;85.56;102429.16;5032331;28;20040;-91
2022/01/20 01:46:50;;;;;;;11.10;1.60;;;;;;;2.55;85.67;102414.56;5027436;28;20033;-91
2022/01/20 01:49:17;;;;;;;15.43;2.03;;;;;;;2.53;85.71;102411.06;5030887;28;20072;-91
2022/01/20 01:51:43;;;;;;;16.50;2.27;;;;;;;2.52;85.64;102412.78;5059884;22;20151;-91
2022/01/20 01:54:11;;;;;;;11.53;1.73;;;;;;;2.52;85.50;102420.47;5060388;28;20492;-91
2022/01/20 01:56:36;;;;;;;12.73;1.83;;;;;;;2.51;85.58;102416.16;5057143;28;20091;-91
2022/01/20 01:59:02;;;;;;;14.63;1.70;;;;;;;2.49;85.50;102420.38;5058720;28;20479;-91
2022/01/20 02:01:31;;;;;;;9.37;1.63;;;;;;;2.48;85.63;102421.19;5059959;28;20025;-91
2022/01/20 02:04:00;;;;;;;13.40;1.60;;;;;;;2.48;85.50;102418.63;5063355;28;20498;-90
2022/01/20 02:19:57;;;;;;;10.87;1.60;;;;;;;2.37;85.88;102423.41;5061215;28;20051;-91
2022/01/20 02:22:23;;;;;;;11.40;1.80;;;;;;;2.37;85.71;102428.53;5064086;28;20031;-91
2022/01/20 02:24:49;;;;;;;11.17;1.40;;;;;;;2.37;85.90;102436.25;5062405;28;20040;-92
2022/01/20 02:27:14;;;;;;;13.87;2.20;;;;;;;2.37;85.85;102419.97;5061097;28;20482;-91
2022/01/20 02:29:41;;;;;;;9.70;1.77;;;;;;;2.36;85.89;102433.63;5059573;28;20063;-91
2022/01/20 02:32:07;;;;;;;10.17;1.30;;;;;;;2.40;86.04;102427.75;5057672;28;20021;-91
2022/01/20 02:34:33;;;;;;;11.40;1.70;;;;;;;2.42;85.87;102424.44;5060109;28;20031;-90
2022/01/20 02:37:02;;;;;;;9.70;2.27;;;;;;;2.48;85.77;102422.88;5063060;28;20032;-91
2022/01/20 02:44:57;;;;;;;12.07;1.77;;;;;;;2.68;85.44;102415.84;5060123;28;20134;-91
2022/01/20 02:47:26;;;;;;;9.07;1.50;;;;;;;2.78;85.20;102412.72;5061752;28;20387;-91
2022/01/20 02:49:52;;;;;;;12.23;1.70;;;;;;;2.77;85.24;102400.72;5058144;28;20032;-91
2022/01/20 02:52:18;;;;;;;15.10;1.93;;;;;;;2.73;85.18;102394.59;5062677;28;20414;-91
2022/01/20 02:54:44;;;;;;;12.67;1.63;;;;;;;2.71;85.23;102403.97;5065397;28;20386;-91
2022/01/20 02:57:10;;;;;;;20.03;2.20;;;;;;;2.69;85.02;102402.19;5063623;28;20144;-91
2022/01/20 02:59:36;;;;;;;10.00;1.30;;;;;;;2.66;85.41;102408.06;5067747;28;20021;-91
2022/01/20 03:02:03;;;;;;;10.63;1.33;;;;;;;2.65;85.33;102405.47;5061614;28;20037;-91
2022/01/20 03:04:30;;;;;;;19.40;2.90;;;;;;;2.64;85.04;102403.72;5065414;28;20120;-91
2022/01/20 03:06:55;;;;;;;7.67;1.43;;;;;;;2.65;85.11;102405.47;5063625;28;20416;-91
2022/01/20 03:09:20;;;;;;;12.67;1.40;;;;;;;2.58;85.03;102400.13;5067052;28;20024;-91
2022/01/20 03:11:46;;;;;;;8.77;1.20;;;;;;;2.56;85.48;102406.91;5062674;28;20044;-91
2022/01/20 03:14:14;;;;;;;7.10;1.20;;;;;;;2.55;85.32;102409.44;5066561;28;20037;-92
2022/01/20 03:16:39;;;;;;;7.77;1.27;;;;;;;2.53;85.16;102406.81;5064460;28;20480;-91
2022/01/20 03:19:04;;;;;;;10.70;1.30;;;;;;;2.52;85.48;102399.94;5064599;28;20031;-90
2022/01/20 03:21:30;;;;;;;10.40;1.80;;;;;;;2.51;85.66;102394.72;5064632;28;20039;-91
2022/01/20 03:23:55;;;;;;;10.83;1.20;;;;;;;2.51;85.74;102389.59;5064257;28;20468;-91
2022/01/20 03:26:20;;;;;;;9.83;1.47;;;;;;;2.52;85.48;102383.63;5062781;28;20032;-91
2022/01/20 03:28:46;;;;;;;11.07;1.37;;;;;;;2.54;85.41;102390.59;5067789;28;20044;-90
2022/01/20 03:31:11;;;;;;;8.37;1.23;;;;;;;2.57;85.66;102387.22;5066441;28;20043;-91
2022/01/20 03:33:37;;;;;;;7.37;1.10;;;;;;;2.61;85.64;102398.47;5063631;28;20032;-92
2022/01/20 03:36:02;;;;;;;7.63;0.90;;;;;;;2.63;85.64;102397.72;5064236;28;20032;-91
2022/01/20 03:38:27;;;;;;;9.77;1.10;;;;;;;2.67;85.77;102408.97;5061184;28;20445;-91
2022/01/20 03:40:53;;;;;;;8.17;1.10;;;;;;;2.70;85.99;102409.06;5064494;28;20029;-90
2022/01/20 03:43:18;;;;;;;8.53;1.10;;;;;;;2.70;86.40;102412.50;5060553;28;20074;-91
2022/01/20 03:45:49;;;;;;;7.73;1.10;;;;;;;2.70;86.66;102406.50;5059149;28;20143;-92
2022/01/20 03:48:14;;;;;;;8.63;1.07;;;;;;;2.71;86.63;102406.53;5065627;28;20028;-92
2022/01/20 03:53:23;;;;;;;11.30;1.07;;;;;;;2.75;87.25;102407.50;5064960;28;20097;-91
2022/01/20 03:55:49;;;;;;;6.23;1.00;;;;;;;2.71;86.91;102410.81;5062045;28;20442;-92
2022/01/20 03:58:15;;;;;;;4.97;1.20;;;;;;;2.71;87.38;102403.09;5061233;28;20032;-92
2022/01/20 04:00:41;;;;;;;7.00;1.40;;;;;;;2.71;87.41;102406.53;5063485;28;20017;-91
2022/01/20 04:03:06;;;;;;;8.27;1.10;;;;;;;2.69;86.97;102407.31;5065486;28;20017;-91
2022/01/20 04:05:32;;;;;;;9.17;1.30;;;;;;;2.69;87.18;102407.31;5061071;28;20078;-91
2022/01/20 04:07:57;;;;;;;10.67;1.40;;;;;;;2.72;86.65;102410.00;5061227;28;20044;-91
2022/01/20 04:10:22;;;;;;;9.83;1.20;;;;;;;2.77;86.41;102412.69;5063580;28;20079;-92
2022/01/20 04:12:48;;;;;;;9.80;1.23;;;;;;;2.79;86.22;102414.47;5064831;28;20032;-92
2022/01/20 04:15:16;;;;;;;9.07;1.40;;;;;;;2.79;86.28;102405.91;5064164;28;20032;-90
2022/01/20 04:17:43;;;;;;;7.33;1.40;;;;;;;2.77;86.41;102411.00;5064128;28;20081;-90
2022/01/20 04:20:09;;;;;;;7.17;1.30;;;;;;;2.79;85.89;102413.63;5063826;28;20219;-91
2022/01/20 04:22:34;;;;;;;11.87;1.40;;;;;;;2.81;85.96;102414.56;5064582;28;20211;-91
2022/01/20 04:25:00;;;;;;;11.53;1.50;;;;;;;2.85;85.75;102413.81;5062271;28;20021;-91
2022/01/20 04:27:25;;;;;;;10.83;1.20;;;;;;;2.85;85.82;102421.50;5063265;28;20016;-91
2022/01/20 04:29:50;;;;;;;9.17;1.30;;;;;;;2.83;86.19;102426.63;5058573;28;20798;-92
2022/01/20 04:32:15;;;;;;;11.70;1.70;;;;;;;2.87;85.64;102436.19;5060712;28;20034;-91
2022/01/20 04:34:41;;;;;;;8.73;1.53;;;;;;;2.94;84.98;102428.66;5060612;28;20028;-92
2022/01/20 04:37:08;;;;;;;12.67;2.00;;;;;;;2.92;84.86;102445.72;5059647;28;20147;-90
2022/01/20 04:39:36;;;;;;;12.63;1.70;;;;;;;2.91;84.85;102449.09;5065545;28;20028;-90
2022/01/20 04:42:02;;;;;;;14.43;1.50;;;;;;;2.93;85.36;102444.88;5063473;28;20052;-92
2022/01/20 04:44:43;;;;;;;14.30;2.03;;;;;;;2.95;85.72;102456.09;5060077;28;20056;-91
2022/01/20 04:57:45;;;;;;;8.83;1.10;;;;;;;2.79;86.50;102450.47;5060963;28;20035;-91
2022/01/20 05:00:11;;;;;;;8.23;1.57;;;;;;;2.76;86.11;102459.78;5064327;28;20029;-92
2022/01/20 05:02:36;;;;;;;9.60;1.30;;;;;;;2.71;86.17;102460.50;5060402;28;20025;-91
2022/01/20 05:05:02;;;;;;;6.97;1.00;;;;;;;2.69;86.62;102469.00;5061728;28;20121;-91
2022/01/20 05:07:28;;;;;;;8.83;1.37;;;;;;;2.67;86.86;102474.06;5059843;28;20033;-91
2022/01/20 05:09:56;;;;;;;8.13;1.10;;;;;;;2.67;87.04;102475.78;5062234;28;20048;-91
2022/01/20 05:12:28;;;;;;;13.50;1.40;;;;;;;2.67;87.00;102470.63;5063533;28;20021;-91
2022/01/20 05:14:54;;;;;;;9.13;1.23;;;;;;;2.68;86.59;102472.38;5058884;28;20086;-91
2022/01/20 05:17:20;;;;;;;10.73;1.40;;;;;;;2.69;86.85;102480.13;5062119;28;20103;-91
2022/01/20 05:19:45;;;;;;;8.77;1.67;;;;;;;2.68;86.61;102492.94;5059035;28;20104;-91
2022/01/20 05:22:10;;;;;;;10.60;1.47;;;;;;;2.70;87.24;102501.56;5059261;28;20047;-92
2022/01/20 05:24:35;;;;;;;8.20;1.17;;;;;;;2.72;87.08;102495.66;5063989;28;20407;-90
2022/01/20 05:27:01;;;;;;;7.90;1.30;;;;;;;2.73;87.07;102499.13;5059898;28;20036;-91
2022/01/20 05:29:26;;;;;;;10.43;1.20;;;;;;;2.74;86.71;102508.53;5062550;28;20025;-90
2022/01/20 05:31:52;;;;;;;12.10;1.17;;;;;;;2.75;86.29;102492.31;5059214;28;20111;-91
2022/01/20 05:34:18;;;;;;;9.83;1.10;;;;;;;2.78;86.28;102505.25;5061817;28;20495;-90
2022/01/20 05:36:46;;;;;;;8.30;0.90;;;;;;;2.79;86.50;102514.72;5062288;28;20032;-90
2022/01/20 05:39:12;;;;;;;8.13;1.20;;;;;;;2.78;86.32;102514.69;5062617;28;20395;-91
2022/01/20 05:41:37;;;;;;;6.73;0.83;;;;;;;2.76;86.05;102527.47;5061113;28;20464;-91
2022/01/20 05:44:03;;;;;;;7.00;1.07;;;;;;;2.77;86.42;102539.50;5059401;28;20021;-90
2022/01/20 05:46:35;;;;;;;8.93;1.20;;;;;;;2.75;86.52;102556.56;5083112;28;20020;-90
2022/01/20 05:49:08;;;;;;;7.27;1.30;;;;;;;2.72;85.82;102557.34;5063092;28;20070;-90
2022/01/20 05:51:43;;;;;;;12.83;1.37;;;;;;;2.63;85.88;102535.59;5058835;28;20037;-90
2022/01/20 05:54:08;;;;;;;11.60;1.40;;;;;;;2.58;85.45;102538.84;5061460;28;20037;-89
2022/01/20 05:56:34;;;;;;;12.00;1.70;;;;;;;2.50;85.63;102548.00;5064845;28;20033;-90
2022/01/20 05:58:59;;;;;;;11.73;1.50;;;;;;;2.43;85.69;102548.59;5060370;28;20085;-90
2022/01/20 06:01:25;;;;;;;8.40;1.53;;;;;;;2.39;85.66;102554.47;5063126;28;20020;-90
2022/01/20 06:03:51;;;;;;;8.07;1.23;;;;;;;2.34;85.94;102551.72;5059560;28;20434;-90
2022/01/20 06:06:16;;;;;;;12.70;1.43;;;;;;;2.34;85.78;102548.28;5061235;28;20039;-90
2022/01/20 06:08:42;;;;;;;10.27;1.30;;;;;;;2.31;86.28;102553.31;5062741;28;20028;-90
2022/01/20 06:11:08;;;;;;;6.13;1.13;;;;;;;2.31;86.40;102553.31;5060555;28;20039;-90
2022/01/20 06:13:33;;;;;;;9.67;1.30;;;;;;;2.31;86.22;102558.44;5062990;28;20040;-91
2022/01/20 06:15:59;;;;;;;9.60;1.43;;;;;;;2.28;86.38;102566.91;5061681;28;20040;-90
2022/01/20 06:18:24;;;;;;;7.23;1.03;;;;;;;2.29;86.12;102566.09;5060061;28;20028;-90
2022/01/20 06:20:50;;;;;;;13.13;2.23;;;;;;;2.28;86.15;102570.34;5056539;28;20032;-90
2022/01/20 06:23:16;;;;;;;16.97;2.60;;;;;;;2.30;85.98;102584.94;5059649;28;20760;-91
2022/01/20 06:25:41;;;;;;;11.50;1.70;;;;;;;2.29;85.89;102584.06;5063332;28;20028;-90
2022/01/20 06:28:08;;;;;;;8.80;1.33;;;;;;;2.27;85.86;102589.13;5057951;28;20040;-90
2022/01/20 06:30:37;;;;;;;10.00;1.33;;;;;;;2.28;85.80;102596.03;5060860;28;20020;-91
2022/01/20 06:33:03;;;;;;;10.57;1.93;;;;;;;2.27;85.83;102591.72;5060797;28;20024;-91
2022/01/20 06:35:29;;;;;;;10.13;1.43;;;;;;;2.27;85.94;102589.13;5067821;28;20029;-90
2022/01/20 06:37:54;;;;;;;11.17;1.80;;;;;;;2.27;86.01;102589.13;5064817;28;20119;-91
2022/01/20 06:40:20;;;;;;;7.03;1.20;;;;;;;2.31;85.98;102594.41;5065932;28;20107;-91
2022/01/20 06:42:45;;;;;;;14.17;1.67;;;;;;;2.29;85.54;102599.50;5063000;28;20040;-90
2022/01/20 06:45:14;;;;;;;13.30;1.20;;;;;;;2.31;85.51;102600.38;5066561;28;20040;-91
2022/01/20 06:47:40;;;;;;;16.30;1.53;;;;;;;2.31;85.72;102604.66;5063407;28;20396;-92
2022/01/20 06:50:08;;;;;;;11.13;1.27;;;;;;;2.31;85.35;102604.66;5061478;28;20468;-91
2022/01/20 06:52:33;;;;;;;15.90;1.47;;;;;;;2.30;85.31;102613.19;5065525;28;20057;-91
2022/01/20 06:55:00;;;;;;;13.70;1.73;;;;;;;2.32;85.31;102616.69;5059050;28;20082;-91
2022/01/20 06:57:26;;;;;;;16.20;1.80;;;;;;;2.31;85.25;102614.94;5063425;28;20119;-91
2022/01/20 06:59:51;;;;;;;18.80;2.07;;;;;;;2.31;84.79;102632.91;5063268;28;20440;-91
2022/01/20 07:02:17;;;;;;;12.60;1.50;;;;;;;2.31;84.39;102638.06;5065731;28;20040;-91
2022/01/20 07:04:43;;;;;;;14.80;1.40;;;;;;;2.30;84.58;102641.44;5069382;28;20028;-91
2022/01/20 07:07:09;;;;;;;10.23;1.63;;;;;;;2.31;83.87;102646.63;5062016;28;20027;-91
2022/01/20 07:09:35;;;;;;;12.60;1.97;;;;;;;2.31;83.77;102653.47;5065250;28;20107;-91
2022/01/20 07:12:01;;;;;;;15.73;2.00;;;;;;;2.31;83.43;102650.91;5065058;28;20031;-91
2022/01/20 07:14:26;;;;;;;8.40;1.50;;;;;;;2.30;83.34;102656.84;5064091;28;20112;-92
2022/01/20 07:16:52;;;;;;;13.53;1.60;;;;;;;2.31;82.61;102641.47;5068132;28;20028;-91
2022/01/20 07:19:17;;;;;;;13.80;1.50;;;;;;;2.28;82.16;102647.38;5068467;28;20040;-91
2022/01/20 07:21:44;;;;;;;12.13;1.47;;;;;;;2.30;81.46;102642.34;5066719;28;20384;-91
2022/01/20 07:24:10;;;;;;;12.73;1.60;;;;;;;2.27;81.90;102647.34;5064440;28;20076;-92
2022/01/20 07:26:35;;;;;;;13.30;1.60;;;;;;;2.27;81.92;102661.03;5068024;28;20111;-91
2022/01/20 07:29:01;;;;;;;14.10;2.37;;;;;;;2.26;81.20;102663.56;5074767;28;20066;-91
2022/01/20 07:31:26;;;;;;;8.17;1.50;;;;;;;2.25;81.10;102662.69;5069821;28;20029;-91
2022/01/20 07:33:51;;;;;;;10.93;1.83;;;;;;;2.25;80.51;102662.69;5082358;28;20024;-90
2022/01/20 07:36:18;;;;;;;10.07;1.37;;;;;;;2.22;80.29;102662.56;5069640;28;20021;-91
2022/01/20 07:38:43;;;;;;;15.57;2.40;;;;;;;2.24;79.90;102673.75;5073018;28;20507;-92
2022/01/20 07:41:08;;;;;;;12.87;1.77;;;;;;;2.23;80.33;102678.84;5060490;28;20051;-92
2022/01/20 07:43:34;;;;;;;9.53;1.20;;;;;;;2.23;80.43;102684.84;5061952;28;20158;-91
2022/01/20 07:45:59;;;;;;;10.07;2.00;;;;;;;2.21;79.24;102676.25;5064525;28;20021;-91
2022/01/20 07:48:25;;;;;;;13.00;1.33;;;;;;;2.21;79.45;102675.34;5060276;28;20360;-92
2022/01/20 07:50:50;;;;;;;13.93;1.57;;;;;;;2.23;78.93;102674.56;5058097;28;20435;-91
2022/01/20 07:53:15;;;;;;;12.03;1.70;;;;;;;2.23;77.84;102684.00;5064285;28;20086;-91
2022/01/20 07:55:41;;;;;;;18.57;1.87;;;;;;;2.25;78.15;102690.94;5071783;28;20324;-92
2022/01/20 07:58:06;;;;;;;10.77;1.50;;;;;;;2.27;78.17;102696.13;5067564;28;20043;-91
2022/01/20 08:12:59;;;;;;;10.07;1.58;;;;;;;2.34;74.86;102721.22;5108512;27;20784;-77
2022/01/20 08:15:25;;;;;;;11.57;1.90;;;;;;;2.40;75.33;102726.63;5108668;28;20046;-77
2022/01/20 08:17:50;;;;;;;9.77;1.40;;;;;;;2.45;76.19;102721.66;5107884;28;20035;-77
2022/01/20 08:20:16;;;;;;;7.30;1.30;;;;;;;2.47;74.80;102725.16;5109457;28;20023;-77
2022/01/20 08:22:41;;;;;;;14.93;2.00;;;;;;;2.49;75.89;102730.34;5108310;28;20122;-77
2022/01/20 08:25:10;;;;;;;7.87;1.30;;;;;;;2.48;75.76;102732.03;5089097;28;20042;-77
2022/01/20 08:27:40;;;;;;;15.43;1.80;;;;;;;2.50;75.73;102738.13;5108140;28;20024;-77
2022/01/20 08:30:08;;;;;;;12.37;1.50;;;;;;;2.52;75.78;102739.06;5107345;28;20024;-78
2022/01/20 08:32:34;;;;;;;10.07;1.23;;;;;;;2.53;73.08;102745.94;5107595;28;20072;-77
2022/01/20 08:35:04;;;;;;;9.47;1.50;;;;;;;2.53;73.95;102745.94;5108065;28;20084;-77
2022/01/20 08:37:29;;;;;;;8.07;1.30;;;;;;;2.56;73.56;102750.31;5108548;28;20039;-77
2022/01/20 08:39:55;;;;;;;11.77;1.60;;;;;;;2.57;73.02;102752.94;5108310;28;20036;-77
2022/01/20 08:42:22;;;;;;;8.30;1.40;;;;;;;2.56;73.13;102756.31;5106346;28;20032;-77
2022/01/20 08:44:47;;;;;;;11.07;1.20;;;;;;;2.57;72.85;102752.94;5107897;28;20035;-77
2022/01/20 08:47:20;;;;;;;8.27;1.40;;;;;;;2.58;73.20;102759.84;5104025;28;20031;-78
2022/01/20 08:49:48;;;;;;;11.40;1.50;;;;;;;2.62;73.85;102763.41;5118840;28;20069;-77
2022/01/20 08:52:15;;;;;;;7.17;1.17;;;;;;;2.62;73.87;102762.53;5102133;28;20114;-77
2022/01/20 08:54:41;;;;;;;11.77;1.63;;;;;;;2.62;73.57;102770.22;5102558;28;20039;-77
2022/01/20 08:57:06;;;;;;;12.70;1.30;;;;;;;2.62;74.49;102771.13;5102439;28;20054;-77
2022/01/20 08:59:31;;;;;;;9.97;1.40;;;;;;;2.62;73.38;102771.13;5106146;28;20024;-77
2022/01/20 09:01:57;;;;;;;11.27;1.50;;;;;;;2.64;73.96;102771.19;5107481;28;20037;-77
2022/01/20 09:04:22;;;;;;;10.57;1.30;;;;;;;2.63;73.33;102772.00;5106604;28;20040;-78
2022/01/20 09:06:48;;;;;;;8.17;1.17;;;;;;;2.63;73.17;102777.13;5107804;28;20062;-78
2022/01/20 09:09:16;;;;;;;11.87;1.80;;;;;;;2.64;73.81;102784.03;5088684;28;20476;-77
2022/01/20 09:11:51;;;;;;;11.93;1.23;;;;;;;2.67;73.32;102791.84;5088096;28;20035;-77
2022/01/20 09:17:01;;;;;;;8.27;1.43;;;;;;;2.75;72.69;102793.00;5093303;28;20464;-77
2022/01/20 09:19:26;;;;;;;11.00;1.57;;;;;;;2.75;72.46;102790.44;5093651;28;20106;-77
2022/01/20 09:21:51;;;;;;;7.40;1.10;;;;;;;2.74;72.95;102791.25;5093597;28;20024;-77
2022/01/20 09:24:16;;;;;;;9.70;1.60;;;;;;;2.78;71.64;102784.56;5092597;28;20032;-77
2022/01/20 09:26:42;;;;;;;9.17;1.30;;;;;;;2.74;73.69;102778.41;5093947;28;20022;-77
2022/01/20 09:29:07;;;;;;;8.23;1.23;;;;;;;2.75;72.96;102779.28;5093002;28;20464;-77
2022/01/20 09:31:37;;;;;;;10.60;1.53;;;;;;;2.76;72.71;102778.47;5091745;28;20046;-77
2022/01/20 09:34:03;;;;;;;10.50;1.63;;;;;;;2.77;72.43;102783.66;5091912;28;20460;-77
2022/01/20 09:36:28;;;;;;;11.30;1.50;;;;;;;2.74;72.90;102783.53;5089442;28;20035;-77
2022/01/20 09:38:54;;;;;;;13.43;1.20;;;;;;;2.72;73.15;102782.63;5089350;28;20028;-77
2022/01/20 09:41:19;;;;;;;8.27;1.50;;;;;;;2.68;73.84;102781.63;5088125;28;20581;-77
2022/01/20 09:43:44;;;;;;;12.87;1.33;;;;;;;2.66;73.11;102783.25;5093044;28;20031;-77
2022/01/20 09:46:10;;;;;;;11.00;1.83;;;;;;;2.69;73.13;102790.22;5091091;28;20032;-78
2022/01/20 09:48:35;;;;;;;13.47;1.50;;;;;;;2.70;72.39;102805.69;5074965;28;20066;-77
2022/01/20 09:51:00;;;;;;;9.97;1.60;;;;;;;2.70;72.36;102809.97;5093288;28;20059;-77
2022/01/20 09:53:30;;;;;;;10.50;1.67;;;;;;;2.68;73.01;102801.31;5091267;28;20032;-77
2022/01/20 09:55:57;;;;;;;8.83;1.63;;;;;;;2.69;73.40;102810.78;5087335;28;20126;-77
2022/01/20 09:58:23;;;;;;;11.53;1.40;;;;;;;2.67;72.60;102817.56;5087733;28;20439;-77
2022/01/20 10:00:51;;;;;;;12.00;1.60;;;;;;;2.73;72.19;102828.94;5087630;28;20024;-77
2022/01/20 10:03:19;;;;;;;11.60;1.80;;;;;;;2.70;72.35;102833.97;5091452;28;20028;-77
2022/01/20 10:05:51;;;;;;;8.70;1.50;;;;;;;2.71;72.82;102835.72;5089582;28;20119;-77
2022/01/20 10:08:22;;;;;;;8.33;1.70;;;;;;;2.73;72.60;102831.50;5091564;28;20051;-77
2022/01/20 10:10:59;;;;;;;9.07;1.35;;;;;;;2.74;72.89;102863.22;5086728;28;20026;-77
2022/01/20 10:13:31;;;;;;;10.07;1.43;;;;;;;2.78;73.46;102839.41;5086990;28;20083;-77
2022/01/20 10:16:00;;;;;;;9.82;1.27;;;;;;;2.81;72.84;102847.22;5091377;28;20095;-77
2022/01/20 10:18:26;;;;;;;12.20;1.60;;;;;;;2.81;73.46;102841.22;5090458;28;20027;-80
2022/01/20 10:20:55;;;;;;;11.17;1.50;;;;;;;2.85;70.86;102836.25;5089904;28;20027;-80
2022/01/20 10:23:35;;;;;;;11.03;1.77;;;;;;;2.87;72.36;102852.63;5090962;28;20085;-79
2022/01/20 10:26:15;;;;;;;9.43;1.50;;;;;;;2.92;72.32;102844.19;5086836;28;20047;-79
2022/01/20 10:29:03;;;;;;;9.97;1.80;;;;;;;3.04;73.07;102853.25;5089596;28;20034;-79
2022/01/20 10:31:46;;;;;;;10.37;1.30;;;;;;;3.16;72.06;102852.84;5090206;28;20403;-79
2022/01/20 10:34:30;;;;;;;8.53;1.50;;;;;;;3.31;71.90;102867.09;5088567;28;20035;-79
2022/01/20 10:36:59;;;;;;;9.50;1.30;;;;;;;3.34;69.95;102867.22;5086908;28;20150;-79
2022/01/20 10:39:38;;;;;;;10.80;1.70;;;;;;;3.34;70.25;102869.78;5090535;28;20227;-79
2022/01/20 10:42:06;;;;;;;8.77;1.20;;;;;;;3.37;68.29;102872.47;5089043;28;20024;-79
2022/01/20 10:44:45;;;;;;;10.70;1.60;;;;;;;3.38;69.57;102869.09;5088380;28;20491;-80
2022/01/20 10:47:13;;;;;;;13.33;1.37;;;;;;;3.40;69.14;102862.31;5083423;28;20112;-79
2022/01/20 10:49:39;;;;;;;12.73;1.50;;;;;;;3.44;69.00;102871.88;5083358;28;20020;-80
2022/01/20 10:52:07;;;;;;;13.53;1.90;;;;;;;3.49;68.98;102882.38;5083673;28;20019;-79
2022/01/20 10:54:37;;;;;;;11.10;1.67;;;;;;;3.48;69.91;102873.75;5084399;28;20093;-80
2022/01/20 10:57:03;;;;;;;8.27;1.30;;;;;;;3.52;69.12;102886.72;5080221;28;20062;-80
2022/01/20 10:59:28;;;;;;;12.90;1.60;;;;;;;3.54;68.22;102885.09;5081010;28;20024;-79
2022/01/20 11:02:05;;;;;;;8.17;1.20;;;;;;;3.55;68.29;102889.44;5083552;28;20421;-80
2022/01/20 11:04:32;;;;;;;6.97;1.20;;;;;;;3.49;68.86;102902.94;5082652;28;20121;-80
2022/01/20 11:07:02;;;;;;;7.30;1.17;;;;;;;3.37;69.37;102908.50;5084686;28;20802;-79
2022/01/20 11:09:28;;;;;;;9.30;1.60;;;;;;;3.22;71.20;102895.06;5084095;28;20043;-80
2022/01/20 11:11:55;;;;;;;9.47;1.33;;;;;;;3.12;71.02;102897.28;5068659;28;20044;-80
2022/01/20 11:14:21;;;;;;;13.43;1.70;;;;;;;3.06;71.66;102886.78;5088160;28;20075;-80
2022/01/20 11:16:46;;;;;;;7.67;1.40;;;;;;;3.02;72.15;102895.16;5087013;28;20099;-80
2022/01/20 11:19:21;;;;;;;12.40;1.57;;;;;;;3.04;72.73;102889.25;5084318;28;20099;-80
2022/01/20 11:21:48;;;;;;;7.13;1.67;;;;;;;3.14;72.02;102884.50;5084714;28;20099;-80
2022/01/20 11:24:25;;;;;;;11.20;1.50;;;;;;;3.26;70.55;102889.19;5087436;28;20047;-80
2022/01/20 11:26:53;;;;;;;8.90;1.10;;;;;;;3.33;71.59;102876.63;5068895;28;20388;-80
2022/01/20 11:29:21;;;;;;;6.80;1.40;;;;;;;3.40;70.91;102880.31;5088600;28;20043;-80
2022/01/20 11:31:47;;;;;;;11.80;1.30;;;;;;;3.42;70.19;102881.22;5067324;28;20016;-80
2022/01/20 11:34:20;;;;;;;10.53;1.50;;;;;;;3.38;70.57;102869.09;5085717;28;20012;-79
2022/01/20 11:36:47;;;;;;;13.60;1.33;;;;;;;3.36;68.81;102864.69;5090024;28;20511;-80
2022/01/20 11:39:13;;;;;;;7.93;1.23;;;;;;;3.36;68.39;102860.44;5090047;28;20107;-80
2022/01/20 11:41:47;;;;;;;9.97;1.37;;;;;;;3.42;67.74;102860.66;5090467;28;20066;-79
2022/01/20 11:44:23;;;;;;;9.83;1.20;;;;;;;3.45;67.61;102853.03;5070829;28;20480;-80
2022/01/20 11:46:51;;;;;;;9.17;1.20;;;;;;;3.54;68.48;102855.06;5084037;28;20111;-80
2022/01/20 11:49:21;;;;;;;10.50;1.33;;;;;;;3.67;68.01;102847.81;5083412;28;20081;-80
2022/01/20 11:51:50;;;;;;;11.23;1.27;;;;;;;3.75;69.03;102847.25;5062907;28;20038;-80
2022/01/20 11:54:35;;;;;;;9.17;1.20;;;;;;;3.81;68.05;102856.91;5084117;28;20073;-80
2022/01/20 11:57:29;;;;;;;6.10;1.17;;;;;;;3.90;66.97;102864.06;5083234;28;20047;-80
2022/01/20 12:00:01;;;;;;;9.87;1.40;;;;;;;3.88;66.22;102860.56;5068987;28;20028;-79
2022/01/20 12:02:33;;;;;;;9.27;1.37;;;;;;;3.90;65.71;102864.06;5088046;28;20407;-80
2022/01/20 12:05:00;;;;;;;7.53;1.10;;;;;;;3.94;64.98;102868.47;5088321;28;20483;-79
2022/01/20 12:07:28;;;;;;;8.53;1.10;;;;;;;3.97;64.94;102854.84;5089294;28;20024;-80
2022/01/20 12:10:05;;;;;;;8.43;1.30;;;;;;;3.99;65.51;102856.63;5086263;28;20043;-80
2022/01/20 12:12:30;;;;;;;4.70;0.80;;;;;;;4.01;64.51;102846.41;5081020;28;20115;-80
2022/01/20 12:15:06;;;;;;;6.30;1.30;;;;;;;4.03;64.96;102845.63;5083526;28;20539;-80
2022/01/20 12:17:32;;;;;;;11.47;1.10;;;;;;;4.09;64.96;102838.13;5085799;28;20066;-80
2022/01/20 12:19:58;;;;;;;12.40;1.57;;;;;;;4.19;63.28;102830.69;5086897;28;20045;-80
2022/01/20 12:22:23;;;;;;;6.10;0.90;;;;;;;4.24;62.12;102824.84;5086297;28;20059;-80
2022/01/20 12:24:51;;;;;;;5.33;1.03;;;;;;;4.28;63.25;102824.94;5088175;28;20028;-79
2022/01/20 12:27:18;;;;;;;6.63;1.10;;;;;;;4.27;63.19;102833.50;5086478;28;20031;-80
2022/01/20 12:29:43;;;;;;;5.40;1.77;;;;;;;4.22;62.44;102841.94;5085222;28;20035;-80
2022/01/20 12:32:14;;;;;;;5.17;1.27;;;;;;;4.21;63.25;102842.78;5085915;28;20480;-80
2022/01/20 12:34:41;;;;;;;5.53;0.98;;;;;;;4.17;62.79;102842.63;5084724;28;20043;-80
2022/01/20 12:37:06;;;;;;;6.70;1.30;;;;;;;4.12;62.60;102833.88;5088071;28;20031;-80
2022/01/20 12:39:34;;;;;;;5.83;1.20;;;;;;;4.06;63.22;102840.59;5085257;28;20028;-80
2022/01/20 12:42:03;;;;;;;10.03;1.47;;;;;;;4.03;64.43;102843.06;5088892;28;20028;-80
2022/01/20 12:47:29;;;;;;;10.97;1.10;;;;;;;4.02;63.67;102841.28;5085568;28;20502;-80
2022/01/20 12:49:59;;;;;;;7.35;1.02;;;;;;;4.01;64.39;102830.97;5092472;28;20028;-80
2022/01/20 12:52:25;;;;;;;7.87;1.20;;;;;;;4.01;64.36;102821.50;5090114;28;20157;-80
2022/01/20 12:54:51;;;;;;;9.43;1.30;;;;;;;4.03;63.41;102814.72;5088005;28;20107;-80